BVX53 YBBN-YMML
Flight info
| Callsign | BVX53 |
|---|---|
| Flight time | N/A |
| Altitude | 28000 |
| Route | SANEG Q35 EKABO/N0417F300 Q35 DORSU H119 ARBEY |
| Aircraft | RJ1H/M-SDFGIRWY/LB1 |
Departure
| Time | 2026-05-04 07:54 |
|---|---|
| Airport | Brisbane International Airport (YBBN) |
Arrival
| Time | N/A |
|---|---|
| Airport | Melbourne Airport (YMML) |
| Time | Latitude | Longitude | Altitude | Speed | Heading |
|---|---|---|---|---|---|
| 2026-05-04 07:02 | -27.38806 | 153.12001 | 17 ft | 0 kts | 278° |
| 2026-05-04 07:41 | -27.38806 | 153.12006 | 17 ft | 3 kts | 278° |
| 2026-05-04 07:41 | -27.38812 | 153.12035 | 21 ft | 4 kts | 287° |
| 2026-05-04 07:41 | -27.38818 | 153.12061 | 20 ft | 4 kts | 268° |
| 2026-05-04 07:41 | -27.38806 | 153.12079 | 19 ft | 4 kts | 209° |
| 2026-05-04 07:42 | -27.38783 | 153.12083 | 20 ft | 4 kts | 155° |
| 2026-05-04 07:42 | -27.38763 | 153.12064 | 17 ft | 3 kts | 134° |
| 2026-05-04 07:42 | -27.38773 | 153.12075 | 17 ft | 4 kts | 137° |
| 2026-05-04 07:42 | -27.38793 | 153.12095 | 20 ft | 4 kts | 139° |
| 2026-05-04 07:43 | -27.38814 | 153.12115 | 17 ft | 4 kts | 139° |
| 2026-05-04 07:43 | -27.38824 | 153.12125 | 17 ft | 0 kts | 139° |
| 2026-05-04 07:49 | -27.38887 | 153.12197 | 18 ft | 9 kts | 107° |
| 2026-05-04 07:49 | -27.38881 | 153.12249 | 19 ft | 6 kts | 54° |
| 2026-05-04 07:49 | -27.38814 | 153.12293 | 18 ft | 15 kts | 27° |
| 2026-05-04 07:50 | -27.38727 | 153.12343 | 18 ft | 13 kts | 26° |
| 2026-05-04 07:50 | -27.38651 | 153.12386 | 18 ft | 11 kts | 25° |
| 2026-05-04 07:50 | -27.38573 | 153.12432 | 19 ft | 15 kts | 28° |
| 2026-05-04 07:50 | -27.38478 | 153.12483 | 18 ft | 14 kts | 27° |
| 2026-05-04 07:51 | -27.38398 | 153.12531 | 18 ft | 12 kts | 26° |
| 2026-05-04 07:51 | -27.38328 | 153.12571 | 19 ft | 12 kts | 28° |
| 2026-05-04 07:51 | -27.38257 | 153.12613 | 19 ft | 13 kts | 27° |
| 2026-05-04 07:51 | -27.38155 | 153.12671 | 19 ft | 20 kts | 26° |
| 2026-05-04 07:52 | -27.38031 | 153.12740 | 18 ft | 16 kts | 26° |
| 2026-05-04 07:52 | -27.37952 | 153.12805 | 17 ft | 11 kts | 110° |
| 2026-05-04 07:52 | -27.37995 | 153.12865 | 18 ft | 8 kts | 123° |
| 2026-05-04 07:52 | -27.38036 | 153.12927 | 18 ft | 10 kts | 124° |
| 2026-05-04 07:53 | -27.38060 | 153.12981 | 20 ft | 6 kts | 113° |
| 2026-05-04 07:54 | -27.42090 | 153.10978 | 1490 ft | 160 kts | 199° |
| 2026-05-04 07:55 | -27.43069 | 153.10574 | 2307 ft | 136 kts | 195° |
| 2026-05-04 07:55 | -27.44003 | 153.10273 | 2469 ft | 155 kts | 190° |
| 2026-05-04 07:55 | -27.45117 | 153.10043 | 2661 ft | 160 kts | 185° |
| 2026-05-04 07:55 | -27.46145 | 153.09954 | 3229 ft | 142 kts | 178° |
| 2026-05-04 07:56 | -27.47203 | 153.10020 | 3228 ft | 166 kts | 169° |
| 2026-05-04 07:56 | -27.48400 | 153.10313 | 3341 ft | 184 kts | 161° |
| 2026-05-04 07:56 | -27.49265 | 153.10692 | 3530 ft | 192 kts | 152° |